sensor_id;sensor_type;location;lat;lon;timestamp;P1;durP1;ratioP1;P2;durP2;ratioP2
9007;SDS011;62813;51.424;6.762;2022-11-15T00:00:47;9.40;;;6.30;;
9007;SDS011;62813;51.424;6.762;2022-11-15T00:03:19;9.40;;;6.47;;
9007;SDS011;62813;51.424;6.762;2022-11-15T00:05:47;10.17;;;6.83;;
9007;SDS011;62813;51.424;6.762;2022-11-15T00:08:14;8.77;;;6.20;;
9007;SDS011;62813;51.424;6.762;2022-11-15T00:10:40;8.60;;;6.60;;
9007;SDS011;62813;51.424;6.762;2022-11-15T00:13:07;8.47;;;6.50;;
9007;SDS011;62813;51.424;6.762;2022-11-15T00:15:35;7.73;;;6.27;;
9007;SDS011;62813;51.424;6.762;2022-11-15T00:18:04;9.80;;;6.03;;
9007;SDS011;62813;51.424;6.762;2022-11-15T00:20:33;8.50;;;6.47;;
9007;SDS011;62813;51.424;6.762;2022-11-15T00:23:00;9.97;;;6.40;;
9007;SDS011;62813;51.424;6.762;2022-11-15T00:25:26;6.40;;;5.60;;
9007;SDS011;62813;51.424;6.762;2022-11-15T00:27:56;6.53;;;5.83;;
9007;SDS011;62813;51.424;6.762;2022-11-15T00:30:24;8.77;;;6.47;;
9007;SDS011;62813;51.424;6.762;2022-11-15T00:32:50;9.53;;;6.07;;
9007;SDS011;62813;51.424;6.762;2022-11-15T00:35:17;8.10;;;6.30;;
9007;SDS011;62813;51.424;6.762;2022-11-15T00:37:44;7.83;;;6.43;;
9007;SDS011;62813;51.424;6.762;2022-11-15T00:40:13;8.37;;;6.37;;
9007;SDS011;62813;51.424;6.762;2022-11-15T00:42:40;7.43;;;6.07;;
9007;SDS011;62813;51.424;6.762;2022-11-15T00:45:07;9.40;;;6.40;;
9007;SDS011;62813;51.424;6.762;2022-11-15T00:47:35;9.23;;;7.00;;
9007;SDS011;62813;51.424;6.762;2022-11-15T00:50:01;10.00;;;6.63;;
9007;SDS011;62813;51.424;6.762;2022-11-15T00:52:29;9.27;;;6.77;;
9007;SDS011;62813;51.424;6.762;2022-11-15T00:54:55;7.53;;;6.50;;
9007;SDS011;62813;51.424;6.762;2022-11-15T00:57:22;9.33;;;6.20;;
9007;SDS011;62813;51.424;6.762;2022-11-15T00:59:49;8.97;;;6.63;;
9007;SDS011;62813;51.424;6.762;2022-11-15T01:02:19;11.97;;;6.90;;
9007;SDS011;62813;51.424;6.762;2022-11-15T01:04:45;10.73;;;6.67;;
9007;SDS011;62813;51.424;6.762;2022-11-15T01:07:12;10.23;;;7.00;;
9007;SDS011;62813;51.424;6.762;2022-11-15T01:09:39;9.00;;;6.73;;
9007;SDS011;62813;51.424;6.762;2022-11-15T01:12:05;8.73;;;6.43;;
9007;SDS011;62813;51.424;6.762;2022-11-15T01:14:32;7.70;;;6.17;;
9007;SDS011;62813;51.424;6.762;2022-11-15T01:16:59;9.50;;;7.13;;
9007;SDS011;62813;51.424;6.762;2022-11-15T01:19:25;7.37;;;6.17;;
9007;SDS011;62813;51.424;6.762;2022-11-15T01:21:52;8.00;;;6.60;;
9007;SDS011;62813;51.424;6.762;2022-11-15T01:24:18;9.57;;;6.43;;
9007;SDS011;62813;51.424;6.762;2022-11-15T01:26:45;9.83;;;6.87;;
9007;SDS011;62813;51.424;6.762;2022-11-15T01:29:11;9.63;;;6.90;;
9007;SDS011;62813;51.424;6.762;2022-11-15T01:31:38;8.57;;;6.87;;
9007;SDS011;62813;51.424;6.762;2022-11-15T01:34:05;8.43;;;6.07;;
9007;SDS011;62813;51.424;6.762;2022-11-15T01:36:31;11.07;;;6.80;;
9007;SDS011;62813;51.424;6.762;2022-11-15T01:38:58;9.10;;;6.57;;
9007;SDS011;62813;51.424;6.762;2022-11-15T01:41:26;9.10;;;6.60;;
9007;SDS011;62813;51.424;6.762;2022-11-15T01:43:55;6.80;;;6.07;;
9007;SDS011;62813;51.424;6.762;2022-11-15T01:48:53;7.47;;;6.50;;
9007;SDS011;62813;51.424;6.762;2022-11-15T01:51:23;8.40;;;6.20;;
9007;SDS011;62813;51.424;6.762;2022-11-15T01:53:54;8.40;;;6.00;;
9007;SDS011;62813;51.424;6.762;2022-11-15T01:56:25;8.53;;;6.27;;
9007;SDS011;62813;51.424;6.762;2022-11-15T01:58:56;7.33;;;6.13;;
9007;SDS011;62813;51.424;6.762;2022-11-15T02:01:27;9.53;;;6.57;;
9007;SDS011;62813;51.424;6.762;2022-11-15T02:03:59;6.70;;;5.50;;
9007;SDS011;62813;51.424;6.762;2022-11-15T02:06:30;10.33;;;6.57;;
9007;SDS011;62813;51.424;6.762;2022-11-15T02:08:56;7.00;;;6.30;;
9007;SDS011;62813;51.424;6.762;2022-11-15T02:11:24;8.53;;;6.17;;
9007;SDS011;62813;51.424;6.762;2022-11-15T02:13:50;8.60;;;5.83;;
9007;SDS011;62813;51.424;6.762;2022-11-15T02:16:27;8.47;;;6.23;;
9007;SDS011;62813;51.424;6.762;2022-11-15T02:32:42;6.57;;;5.43;;
9007;SDS011;62813;51.424;6.762;2022-11-15T02:35:22;7.20;;;5.73;;
9007;SDS011;62813;51.424;6.762;2022-11-15T02:38:17;8.23;;;5.70;;
9007;SDS011;62813;51.424;6.762;2022-11-15T02:40:58;9.50;;;6.20;;
9007;SDS011;62813;51.424;6.762;2022-11-15T02:43:33;9.73;;;6.30;;
9007;SDS011;62813;51.424;6.762;2022-11-15T02:46:31;8.27;;;6.07;;
9007;SDS011;62813;51.424;6.762;2022-11-15T02:49:22;10.00;;;6.27;;
9007;SDS011;62813;51.424;6.762;2022-11-15T02:51:51;9.63;;;6.70;;
9007;SDS011;62813;51.424;6.762;2022-11-15T02:54:21;7.07;;;5.83;;
9007;SDS011;62813;51.424;6.762;2022-11-15T02:56:53;8.10;;;6.17;;
9007;SDS011;62813;51.424;6.762;2022-11-15T02:59:30;6.97;;;5.97;;
9007;SDS011;62813;51.424;6.762;2022-11-15T03:04:44;6.83;;;5.63;;
9007;SDS011;62813;51.424;6.762;2022-11-15T03:07:28;9.13;;;5.97;;
9007;SDS011;62813;51.424;6.762;2022-11-15T03:10:05;8.60;;;6.17;;
9007;SDS011;62813;51.424;6.762;2022-11-15T03:12:36;9.43;;;5.97;;
9007;SDS011;62813;51.424;6.762;2022-11-15T03:15:20;9.33;;;6.27;;
9007;SDS011;62813;51.424;6.762;2022-11-15T03:20:30;8.73;;;6.10;;
9007;SDS011;62813;51.424;6.762;2022-11-15T03:23:04;11.70;;;7.00;;
9007;SDS011;62813;51.424;6.762;2022-11-15T03:25:34;8.70;;;6.10;;
9007;SDS011;62813;51.424;6.762;2022-11-15T03:28:07;10.77;;;6.13;;
9007;SDS011;62813;51.424;6.762;2022-11-15T03:30:37;7.53;;;6.20;;
9007;SDS011;62813;51.424;6.762;2022-11-15T03:33:06;8.83;;;5.73;;
9007;SDS011;62813;51.424;6.762;2022-11-15T03:35:35;8.37;;;6.40;;
9007;SDS011;62813;51.424;6.762;2022-11-15T03:40:51;8.83;;;7.10;;
9007;SDS011;62813;51.424;6.762;2022-11-15T03:46:42;9.90;;;6.93;;
9007;SDS011;62813;51.424;6.762;2022-11-15T03:49:06;9.00;;;6.17;;
9007;SDS011;62813;51.424;6.762;2022-11-15T03:51:36;7.50;;;6.70;;
9007;SDS011;62813;51.424;6.762;2022-11-15T03:54:03;7.00;;;5.90;;
9007;SDS011;62813;51.424;6.762;2022-11-15T03:56:30;6.70;;;5.87;;
9007;SDS011;62813;51.424;6.762;2022-11-15T03:58:57;8.73;;;5.43;;
9007;SDS011;62813;51.424;6.762;2022-11-15T04:01:23;7.93;;;6.43;;
9007;SDS011;62813;51.424;6.762;2022-11-15T04:03:50;7.97;;;5.67;;
9007;SDS011;62813;51.424;6.762;2022-11-15T04:06:16;11.03;;;6.50;;
9007;SDS011;62813;51.424;6.762;2022-11-15T04:08:43;9.10;;;5.77;;
9007;SDS011;62813;51.424;6.762;2022-11-15T04:11:09;9.03;;;6.10;;
9007;SDS011;62813;51.424;6.762;2022-11-15T04:13:36;6.57;;;5.80;;
9007;SDS011;62813;51.424;6.762;2022-11-15T04:16:03;7.77;;;5.60;;
9007;SDS011;62813;51.424;6.762;2022-11-15T04:18:29;9.07;;;5.70;;
9007;SDS011;62813;51.424;6.762;2022-11-15T04:20:56;9.80;;;6.03;;
9007;SDS011;62813;51.424;6.762;2022-11-15T04:23:41;9.00;;;5.40;;
9007;SDS011;62813;51.424;6.762;2022-11-15T04:26:33;6.83;;;5.73;;
9007;SDS011;62813;51.424;6.762;2022-11-15T04:29:00;8.23;;;5.33;;
9007;SDS011;62813;51.424;6.762;2022-11-15T04:31:45;8.50;;;6.10;;
9007;SDS011;62813;51.424;6.762;2022-11-15T04:34:12;6.87;;;5.07;;
9007;SDS011;62813;51.424;6.762;2022-11-15T04:36:38;8.43;;;5.97;;
9007;SDS011;62813;51.424;6.762;2022-11-15T04:39:23;5.30;;;4.50;;
9007;SDS011;62813;51.424;6.762;2022-11-15T04:41:50;6.23;;;4.97;;
9007;SDS011;62813;51.424;6.762;2022-11-15T04:44:16;5.90;;;5.07;;
9007;SDS011;62813;51.424;6.762;2022-11-15T04:46:43;10.60;;;5.33;;
9007;SDS011;62813;51.424;6.762;2022-11-15T04:49:09;6.30;;;4.60;;
9007;SDS011;62813;51.424;6.762;2022-11-15T04:51:36;8.80;;;5.20;;
9007;SDS011;62813;51.424;6.762;2022-11-15T04:54:02;7.87;;;5.20;;
9007;SDS011;62813;51.424;6.762;2022-11-15T04:56:29;7.23;;;5.07;;
9007;SDS011;62813;51.424;6.762;2022-11-15T04:58:55;7.60;;;4.90;;
9007;SDS011;62813;51.424;6.762;2022-11-15T05:01:22;5.77;;;4.60;;
9007;SDS011;62813;51.424;6.762;2022-11-15T05:03:49;7.63;;;5.03;;
9007;SDS011;62813;51.424;6.762;2022-11-15T05:06:34;9.63;;;4.93;;
9007;SDS011;62813;51.424;6.762;2022-11-15T05:09:01;4.90;;;4.40;;
9007;SDS011;62813;51.424;6.762;2022-11-15T05:11:28;4.77;;;4.33;;
9007;SDS011;62813;51.424;6.762;2022-11-15T05:13:54;8.23;;;4.50;;
9007;SDS011;62813;51.424;6.762;2022-11-15T05:16:21;5.97;;;4.97;;
9007;SDS011;62813;51.424;6.762;2022-11-15T05:18:51;5.60;;;4.37;;
9007;SDS011;62813;51.424;6.762;2022-11-15T05:21:19;5.43;;;4.50;;
9007;SDS011;62813;51.424;6.762;2022-11-15T05:23:45;4.93;;;4.30;;
9007;SDS011;62813;51.424;6.762;2022-11-15T05:26:12;5.43;;;4.77;;
9007;SDS011;62813;51.424;6.762;2022-11-15T05:28:39;5.17;;;4.33;;
9007;SDS011;62813;51.424;6.762;2022-11-15T05:31:10;8.33;;;4.27;;
9007;SDS011;62813;51.424;6.762;2022-11-15T05:33:42;6.13;;;4.40;;
9007;SDS011;62813;51.424;6.762;2022-11-15T05:36:15;4.63;;;4.20;;
9007;SDS011;62813;51.424;6.762;2022-11-15T05:38:51;5.60;;;4.50;;
9007;SDS011;62813;51.424;6.762;2022-11-15T05:41:18;5.87;;;5.13;;
9007;SDS011;62813;51.424;6.762;2022-11-15T05:43:48;7.87;;;4.63;;
9007;SDS011;62813;51.424;6.762;2022-11-15T05:46:16;5.33;;;4.27;;
9007;SDS011;62813;51.424;6.762;2022-11-15T05:48:44;5.37;;;4.50;;
9007;SDS011;62813;51.424;6.762;2022-11-15T05:51:15;5.43;;;4.77;;
9007;SDS011;62813;51.424;6.762;2022-11-15T05:55:41;7.47;;;4.90;;
9007;SDS011;62813;51.424;6.762;2022-11-15T05:58:08;7.70;;;4.90;;
9007;SDS011;62813;51.424;6.762;2022-11-15T06:00:35;6.70;;;5.03;;
9007;SDS011;62813;51.424;6.762;2022-11-15T06:03:02;6.03;;;5.03;;
9007;SDS011;62813;51.424;6.762;2022-11-15T06:05:29;5.93;;;5.33;;
9007;SDS011;62813;51.424;6.762;2022-11-15T06:07:58;6.60;;;4.97;;
9007;SDS011;62813;51.424;6.762;2022-11-15T06:10:26;7.30;;;5.20;;
9007;SDS011;62813;51.424;6.762;2022-11-15T06:12:56;6.93;;;5.43;;
9007;SDS011;62813;51.424;6.762;2022-11-15T06:15:32;5.97;;;5.37;;
9007;SDS011;62813;51.424;6.762;2022-11-15T06:18:00;7.03;;;5.73;;
9007;SDS011;62813;51.424;6.762;2022-11-15T06:20:27;9.87;;;5.23;;
9007;SDS011;62813;51.424;6.762;2022-11-15T06:23:02;6.00;;;4.93;;
9007;SDS011;62813;51.424;6.762;2022-11-15T06:25:30;6.67;;;5.27;;
9007;SDS011;62813;51.424;6.762;2022-11-15T06:27:58;5.97;;;5.37;;
9007;SDS011;62813;51.424;6.762;2022-11-15T06:30:25;10.07;;;5.20;;
9007;SDS011;62813;51.424;6.762;2022-11-15T06:32:58;8.03;;;5.97;;
9007;SDS011;62813;51.424;6.762;2022-11-15T06:35:26;8.43;;;5.23;;
9007;SDS011;62813;51.424;6.762;2022-11-15T06:37:53;8.87;;;5.70;;
9007;SDS011;62813;51.424;6.762;2022-11-15T06:40:19;7.37;;;5.47;;
9007;SDS011;62813;51.424;6.762;2022-11-15T06:42:46;6.00;;;5.40;;
9007;SDS011;62813;51.424;6.762;2022-11-15T06:45:13;8.37;;;5.57;;
9007;SDS011;62813;51.424;6.762;2022-11-15T06:47:44;6.23;;;5.00;;
9007;SDS011;62813;51.424;6.762;2022-11-15T06:50:12;5.40;;;4.90;;
9007;SDS011;62813;51.424;6.762;2022-11-15T06:52:39;7.20;;;5.07;;
9007;SDS011;62813;51.424;6.762;2022-11-15T06:55:05;5.60;;;4.53;;
9007;SDS011;62813;51.424;6.762;2022-11-15T06:57:32;6.03;;;4.77;;
9007;SDS011;62813;51.424;6.762;2022-11-15T06:59:59;6.17;;;4.70;;
9007;SDS011;62813;51.424;6.762;2022-11-15T07:02:26;6.93;;;4.53;;
9007;SDS011;62813;51.424;6.762;2022-11-15T07:04:52;6.77;;;4.67;;
9007;SDS011;62813;51.424;6.762;2022-11-15T07:07:19;7.83;;;4.50;;
9007;SDS011;62813;51.424;6.762;2022-11-15T07:09:46;5.70;;;4.30;;
9007;SDS011;62813;51.424;6.762;2022-11-15T07:12:13;6.10;;;4.23;;
9007;SDS011;62813;51.424;6.762;2022-11-15T07:14:39;5.43;;;4.50;;
9007;SDS011;62813;51.424;6.762;2022-11-15T07:17:06;8.70;;;4.50;;
9007;SDS011;62813;51.424;6.762;2022-11-15T07:19:32;6.53;;;4.20;;
9007;SDS011;62813;51.424;6.762;2022-11-15T07:21:59;4.60;;;4.20;;
9007;SDS011;62813;51.424;6.762;2022-11-15T07:24:25;5.17;;;4.67;;
9007;SDS011;62813;51.424;6.762;2022-11-15T07:26:52;7.30;;;4.17;;
9007;SDS011;62813;51.424;6.762;2022-11-15T07:29:19;5.33;;;4.20;;
9007;SDS011;62813;51.424;6.762;2022-11-15T07:31:45;6.13;;;4.27;;
9007;SDS011;62813;51.424;6.762;2022-11-15T07:34:12;7.80;;;4.10;;
9007;SDS011;62813;51.424;6.762;2022-11-15T07:36:39;8.93;;;4.10;;
9007;SDS011;62813;51.424;6.762;2022-11-15T07:39:05;9.90;;;3.80;;
9007;SDS011;62813;51.424;6.762;2022-11-15T07:41:32;10.07;;;4.30;;
9007;SDS011;62813;51.424;6.762;2022-11-15T07:43:58;6.67;;;3.90;;
9007;SDS011;62813;51.424;6.762;2022-11-15T07:46:25;5.37;;;4.10;;
9007;SDS011;62813;51.424;6.762;2022-11-15T07:48:52;4.80;;;3.80;;
9007;SDS011;62813;51.424;6.762;2022-11-15T07:51:19;3.47;;;2.70;;
9007;SDS011;62813;51.424;6.762;2022-11-15T07:53:46;2.60;;;2.40;;
9007;SDS011;62813;51.424;6.762;2022-11-15T07:56:12;2.53;;;1.90;;
9007;SDS011;62813;51.424;6.762;2022-11-15T07:58:39;2.30;;;1.70;;
9007;SDS011;62813;51.424;6.762;2022-11-15T08:01:07;2.53;;;1.40;;
9007;SDS011;62813;51.424;6.762;2022-11-15T08:03:36;5.87;;;1.77;;
9007;SDS011;62813;51.424;6.762;2022-11-15T08:06:03;2.23;;;1.70;;
9007;SDS011;62813;51.424;6.762;2022-11-15T08:08:30;3.93;;;1.47;;
9007;SDS011;62813;51.424;6.762;2022-11-15T08:10:59;2.17;;;1.50;;
9007;SDS011;62813;51.424;6.762;2022-11-15T08:13:26;4.67;;;2.00;;
9007;SDS011;62813;51.424;6.762;2022-11-15T08:15:57;3.10;;;1.90;;
9007;SDS011;62813;51.424;6.762;2022-11-15T08:21:02;5.37;;;3.40;;
9007;SDS011;62813;51.424;6.762;2022-11-15T08:23:29;3.87;;;3.10;;
9007;SDS011;62813;51.424;6.762;2022-11-15T08:25:59;5.30;;;2.90;;
9007;SDS011;62813;51.424;6.762;2022-11-15T08:28:28;5.47;;;2.27;;
9007;SDS011;62813;51.424;6.762;2022-11-15T08:30:55;5.40;;;2.00;;
9007;SDS011;62813;51.424;6.762;2022-11-15T08:33:22;2.43;;;1.70;;
9007;SDS011;62813;51.424;6.762;2022-11-15T08:35:48;3.50;;;1.20;;
9007;SDS011;62813;51.424;6.762;2022-11-15T08:38:15;2.80;;;1.37;;
9007;SDS011;62813;51.424;6.762;2022-11-15T08:40:42;3.70;;;1.50;;
9007;SDS011;62813;51.424;6.762;2022-11-15T08:43:08;2.00;;;1.20;;
9007;SDS011;62813;51.424;6.762;2022-11-15T08:45:35;2.43;;;1.30;;
9007;SDS011;62813;51.424;6.762;2022-11-15T08:48:02;2.43;;;1.20;;
9007;SDS011;62813;51.424;6.762;2022-11-15T08:50:29;3.03;;;1.40;;
9007;SDS011;62813;51.424;6.762;2022-11-15T08:52:56;1.50;;;1.03;;
9007;SDS011;62813;51.424;6.762;2022-11-15T08:55:23;4.40;;;1.47;;
9007;SDS011;62813;51.424;6.762;2022-11-15T08:57:50;2.70;;;1.50;;
9007;SDS011;62813;51.424;6.762;2022-11-15T09:00:17;1.53;;;1.10;;
9007;SDS011;62813;51.424;6.762;2022-11-15T09:02:46;2.83;;;1.27;;
9007;SDS011;62813;51.424;6.762;2022-11-15T09:05:13;1.27;;;1.00;;
9007;SDS011;62813;51.424;6.762;2022-11-15T09:07:39;2.50;;;1.30;;
9007;SDS011;62813;51.424;6.762;2022-11-15T09:10:06;3.80;;;1.67;;
9007;SDS011;62813;51.424;6.762;2022-11-15T09:12:33;2.53;;;1.53;;
9007;SDS011;62813;51.424;6.762;2022-11-15T09:14:59;3.03;;;1.40;;
9007;SDS011;62813;51.424;6.762;2022-11-15T09:17:26;2.47;;;1.53;;
9007;SDS011;62813;51.424;6.762;2022-11-15T09:19:53;2.10;;;1.40;;
9007;SDS011;62813;51.424;6.762;2022-11-15T09:22:19;5.10;;;2.03;;
9007;SDS011;62813;51.424;6.762;2022-11-15T09:24:46;2.83;;;1.70;;
9007;SDS011;62813;51.424;6.762;2022-11-15T09:27:12;4.00;;;2.20;;
9007;SDS011;62813;51.424;6.762;2022-11-15T09:29:39;2.60;;;2.13;;
9007;SDS011;62813;51.424;6.762;2022-11-15T09:32:06;3.27;;;2.27;;
9007;SDS011;62813;51.424;6.762;2022-11-15T09:34:32;3.47;;;2.57;;
9007;SDS011;62813;51.424;6.762;2022-11-15T09:36:59;3.03;;;2.53;;
9007;SDS011;62813;51.424;6.762;2022-11-15T09:39:25;5.27;;;2.67;;
9007;SDS011;62813;51.424;6.762;2022-11-15T09:42:03;3.27;;;2.63;;
9007;SDS011;62813;51.424;6.762;2022-11-15T09:45:01;3.80;;;2.20;;
9007;SDS011;62813;51.424;6.762;2022-11-15T09:50:45;4.13;;;2.17;;
9007;SDS011;62813;51.424;6.762;2022-11-15T09:53:22;3.17;;;2.00;;
9007;SDS011;62813;51.424;6.762;2022-11-15T09:56:23;3.57;;;1.93;;
9007;SDS011;62813;51.424;6.762;2022-11-15T10:01:41;4.37;;;2.00;;
9007;SDS011;62813;51.424;6.762;2022-11-15T10:04:16;2.93;;;1.70;;
9007;SDS011;62813;51.424;6.762;2022-11-15T10:06:54;2.43;;;1.60;;
9007;SDS011;62813;51.424;6.762;2022-11-15T10:09:51;5.13;;;2.03;;
9007;SDS011;62813;51.424;6.762;2022-11-15T10:12:19;2.17;;;1.50;;
9007;SDS011;62813;51.424;6.762;2022-11-15T10:14:45;2.43;;;1.40;;
9007;SDS011;62813;51.424;6.762;2022-11-15T10:17:27;3.70;;;1.90;;
9007;SDS011;62813;51.424;6.762;2022-11-15T10:20:34;6.00;;;1.53;;
9007;SDS011;62813;51.424;6.762;2022-11-15T10:23:25;2.23;;;1.20;;
9007;SDS011;62813;51.424;6.762;2022-11-15T10:25:54;2.27;;;1.20;;
9007;SDS011;62813;51.424;6.762;2022-11-15T10:28:31;3.33;;;1.40;;
9007;SDS011;62813;51.424;6.762;2022-11-15T10:30:59;2.67;;;1.30;;
9007;SDS011;62813;51.424;6.762;2022-11-15T10:33:34;2.07;;;1.40;;
9007;SDS011;62813;51.424;6.762;2022-11-15T10:38:49;3.20;;;1.40;;
9007;SDS011;62813;51.424;6.762;2022-11-15T10:41:18;3.07;;;1.50;;
9007;SDS011;62813;51.424;6.762;2022-11-15T10:44:12;3.03;;;1.53;;
9007;SDS011;62813;51.424;6.762;2022-11-15T10:49:22;3.47;;;1.30;;
9007;SDS011;62813;51.424;6.762;2022-11-15T10:52:37;3.03;;;1.20;;
9007;SDS011;62813;51.424;6.762;2022-11-15T10:54:47;5.27;;;1.40;;
9007;SDS011;62813;51.424;6.762;2022-11-15T10:57:18;2.97;;;1.50;;
9007;SDS011;62813;51.424;6.762;2022-11-15T10:59:47;3.73;;;1.53;;
9007;SDS011;62813;51.424;6.762;2022-11-15T11:02:29;2.63;;;1.40;;
9007;SDS011;62813;51.424;6.762;2022-11-15T11:04:57;3.93;;;1.63;;
9007;SDS011;62813;51.424;6.762;2022-11-15T11:07:25;6.10;;;1.70;;
9007;SDS011;62813;51.424;6.762;2022-11-15T11:12:48;4.00;;;1.43;;
9007;SDS011;62813;51.424;6.762;2022-11-15T11:15:15;3.17;;;1.20;;
9007;SDS011;62813;51.424;6.762;2022-11-15T11:20:29;2.80;;;1.13;;
9007;SDS011;62813;51.424;6.762;2022-11-15T11:26:10;4.97;;;1.40;;
9007;SDS011;62813;51.424;6.762;2022-11-15T11:32:05;3.47;;;1.10;;
9007;SDS011;62813;51.424;6.762;2022-11-15T11:48:13;2.47;;;1.50;;
9007;SDS011;62813;51.424;6.762;2022-11-15T11:50:47;4.73;;;1.03;;
9007;SDS011;62813;51.424;6.762;2022-11-15T11:53:15;3.23;;;1.07;;
9007;SDS011;62813;51.424;6.762;2022-11-15T11:55:56;2.30;;;1.10;;
9007;SDS011;62813;51.424;6.762;2022-11-15T11:58:34;2.23;;;1.03;;
9007;SDS011;62813;51.424;6.762;2022-11-15T12:01:10;2.30;;;1.03;;
9007;SDS011;62813;51.424;6.762;2022-11-15T12:04:01;4.37;;;1.20;;
9007;SDS011;62813;51.424;6.762;2022-11-15T12:09:35;2.63;;;1.10;;
9007;SDS011;62813;51.424;6.762;2022-11-15T12:12:15;3.97;;;0.97;;
9007;SDS011;62813;51.424;6.762;2022-11-15T12:14:53;2.87;;;0.97;;
9007;SDS011;62813;51.424;6.762;2022-11-15T12:17:25;4.17;;;1.00;;
9007;SDS011;62813;51.424;6.762;2022-11-15T12:20:15;2.37;;;0.87;;
9007;SDS011;62813;51.424;6.762;2022-11-15T12:22:53;1.27;;;0.80;;
9007;SDS011;62813;51.424;6.762;2022-11-15T12:28:13;2.17;;;0.90;;
9007;SDS011;62813;51.424;6.762;2022-11-15T12:30:45;4.23;;;1.07;;
9007;SDS011;62813;51.424;6.762;2022-11-15T12:36:08;3.70;;;0.93;;
9007;SDS011;62813;51.424;6.762;2022-11-15T12:41:38;5.50;;;0.90;;
9007;SDS011;62813;51.424;6.762;2022-11-15T12:44:13;3.03;;;1.23;;
9007;SDS011;62813;51.424;6.762;2022-11-15T12:47:01;3.77;;;0.93;;
9007;SDS011;62813;51.424;6.762;2022-11-15T12:49:48;7.13;;;1.00;;
9007;SDS011;62813;51.424;6.762;2022-11-15T12:52:15;4.60;;;0.90;;
9007;SDS011;62813;51.424;6.762;2022-11-15T12:59:53;2.87;;;1.10;;
9007;SDS011;62813;51.424;6.762;2022-11-15T13:02:40;1.97;;;1.17;;
9007;SDS011;62813;51.424;6.762;2022-11-15T13:12:57;3.47;;;1.00;;
9007;SDS011;62813;51.424;6.762;2022-11-15T13:20:53;11.87;;;2.77;;
9007;SDS011;62813;51.424;6.762;2022-11-15T13:23:27;3.47;;;1.40;;
9007;SDS011;62813;51.424;6.762;2022-11-15T13:31:25;4.77;;;1.27;;
9007;SDS011;62813;51.424;6.762;2022-11-15T13:34:02;3.93;;;1.40;;
9007;SDS011;62813;51.424;6.762;2022-11-15T13:37:02;2.23;;;1.13;;
9007;SDS011;62813;51.424;6.762;2022-11-15T13:39:30;3.93;;;1.00;;
9007;SDS011;62813;51.424;6.762;2022-11-15T13:41:59;2.97;;;1.00;;
9007;SDS011;62813;51.424;6.762;2022-11-15T13:44:27;3.53;;;0.90;;
9007;SDS011;62813;51.424;6.762;2022-11-15T13:49:32;3.97;;;1.20;;
9007;SDS011;62813;51.424;6.762;2022-11-15T13:52:00;2.50;;;1.00;;
9007;SDS011;62813;51.424;6.762;2022-11-15T13:54:33;3.03;;;1.13;;
9007;SDS011;62813;51.424;6.762;2022-11-15T13:57:02;18.07;;;8.97;;
9007;SDS011;62813;51.424;6.762;2022-11-15T13:59:35;8.87;;;4.83;;
9007;SDS011;62813;51.424;6.762;2022-11-15T14:02:15;11.30;;;5.23;;
9007;SDS011;62813;51.424;6.762;2022-11-15T14:04:45;3.93;;;1.80;;
9007;SDS011;62813;51.424;6.762;2022-11-15T14:07:25;5.67;;;2.23;;
9007;SDS011;62813;51.424;6.762;2022-11-15T14:09:57;5.67;;;1.10;;
9007;SDS011;62813;51.424;6.762;2022-11-15T14:12:25;4.77;;;1.10;;
9007;SDS011;62813;51.424;6.762;2022-11-15T14:14:55;2.67;;;0.80;;
9007;SDS011;62813;51.424;6.762;2022-11-15T14:19:56;4.93;;;0.97;;
9007;SDS011;62813;51.424;6.762;2022-11-15T14:22:24;3.37;;;1.13;;
9007;SDS011;62813;51.424;6.762;2022-11-15T14:27:36;4.73;;;0.97;;
9007;SDS011;62813;51.424;6.762;2022-11-15T14:30:02;3.23;;;1.07;;
9007;SDS011;62813;51.424;6.762;2022-11-15T14:32:37;3.77;;;1.03;;
9007;SDS011;62813;51.424;6.762;2022-11-15T14:35:18;3.30;;;1.07;;
9007;SDS011;62813;51.424;6.762;2022-11-15T14:37:46;4.83;;;0.93;;
9007;SDS011;62813;51.424;6.762;2022-11-15T14:40:14;2.00;;;1.00;;
9007;SDS011;62813;51.424;6.762;2022-11-15T14:42:46;3.30;;;1.00;;
9007;SDS011;62813;51.424;6.762;2022-11-15T14:45:15;3.10;;;0.90;;
9007;SDS011;62813;51.424;6.762;2022-11-15T14:47:46;4.27;;;1.23;;
9007;SDS011;62813;51.424;6.762;2022-11-15T14:50:14;6.20;;;1.20;;
9007;SDS011;62813;51.424;6.762;2022-11-15T14:52:42;2.13;;;1.07;;
9007;SDS011;62813;51.424;6.762;2022-11-15T14:55:12;4.33;;;1.10;;
9007;SDS011;62813;51.424;6.762;2022-11-15T14:57:44;2.60;;;1.20;;
9007;SDS011;62813;51.424;6.762;2022-11-15T15:00:12;3.00;;;1.10;;
9007;SDS011;62813;51.424;6.762;2022-11-15T15:02:40;2.63;;;1.30;;
9007;SDS011;62813;51.424;6.762;2022-11-15T15:07:39;5.10;;;1.57;;
9007;SDS011;62813;51.424;6.762;2022-11-15T15:10:06;2.17;;;1.50;;
9007;SDS011;62813;51.424;6.762;2022-11-15T15:12:53;4.90;;;1.70;;
9007;SDS011;62813;51.424;6.762;2022-11-15T15:15:21;4.63;;;1.67;;
9007;SDS011;62813;51.424;6.762;2022-11-15T15:17:50;2.93;;;1.37;;
9007;SDS011;62813;51.424;6.762;2022-11-15T15:20:17;3.37;;;2.07;;
9007;SDS011;62813;51.424;6.762;2022-11-15T15:22:44;5.30;;;1.90;;
9007;SDS011;62813;51.424;6.762;2022-11-15T15:25:21;3.20;;;1.60;;
9007;SDS011;62813;51.424;6.762;2022-11-15T15:27:50;2.00;;;1.47;;
9007;SDS011;62813;51.424;6.762;2022-11-15T15:30:17;3.70;;;1.83;;
9007;SDS011;62813;51.424;6.762;2022-11-15T15:32:44;3.67;;;1.50;;
9007;SDS011;62813;51.424;6.762;2022-11-15T15:35:12;4.47;;;1.87;;
9007;SDS011;62813;51.424;6.762;2022-11-15T15:37:40;5.13;;;1.80;;
9007;SDS011;62813;51.424;6.762;2022-11-15T15:40:13;3.33;;;2.00;;
9007;SDS011;62813;51.424;6.762;2022-11-15T15:42:46;3.50;;;1.60;;
9007;SDS011;62813;51.424;6.762;2022-11-15T15:45:13;5.03;;;1.80;;
9007;SDS011;62813;51.424;6.762;2022-11-15T15:47:41;2.87;;;1.53;;
9007;SDS011;62813;51.424;6.762;2022-11-15T15:52:49;4.13;;;1.67;;
9007;SDS011;62813;51.424;6.762;2022-11-15T15:55:16;4.43;;;1.63;;
9007;SDS011;62813;51.424;6.762;2022-11-15T15:57:43;3.63;;;1.70;;
9007;SDS011;62813;51.424;6.762;2022-11-15T16:00:10;4.63;;;1.90;;
9007;SDS011;62813;51.424;6.762;2022-11-15T16:02:37;3.83;;;1.60;;
9007;SDS011;62813;51.424;6.762;2022-11-15T16:05:06;5.00;;;1.80;;
9007;SDS011;62813;51.424;6.762;2022-11-15T16:07:33;2.60;;;1.53;;
9007;SDS011;62813;51.424;6.762;2022-11-15T16:10:00;3.13;;;1.57;;
9007;SDS011;62813;51.424;6.762;2022-11-15T16:12:28;2.87;;;1.70;;
9007;SDS011;62813;51.424;6.762;2022-11-15T16:14:59;2.50;;;1.50;;
9007;SDS011;62813;51.424;6.762;2022-11-15T16:17:28;4.07;;;1.80;;
9007;SDS011;62813;51.424;6.762;2022-11-15T16:19:59;2.87;;;1.50;;
9007;SDS011;62813;51.424;6.762;2022-11-15T16:22:26;3.10;;;1.57;;
9007;SDS011;62813;51.424;6.762;2022-11-15T16:24:55;3.53;;;1.93;;
9007;SDS011;62813;51.424;6.762;2022-11-15T16:27:22;3.03;;;1.83;;
9007;SDS011;62813;51.424;6.762;2022-11-15T16:29:49;2.30;;;1.67;;
9007;SDS011;62813;51.424;6.762;2022-11-15T16:32:16;3.10;;;1.43;;
9007;SDS011;62813;51.424;6.762;2022-11-15T16:34:42;1.80;;;1.30;;
9007;SDS011;62813;51.424;6.762;2022-11-15T16:37:23;2.90;;;1.70;;
9007;SDS011;62813;51.424;6.762;2022-11-15T16:39:50;3.80;;;2.03;;
9007;SDS011;62813;51.424;6.762;2022-11-15T16:42:21;4.97;;;1.43;;
9007;SDS011;62813;51.424;6.762;2022-11-15T16:44:47;4.73;;;1.77;;
9007;SDS011;62813;51.424;6.762;2022-11-15T16:47:17;3.10;;;1.50;;
9007;SDS011;62813;51.424;6.762;2022-11-15T16:49:48;4.13;;;1.43;;
9007;SDS011;62813;51.424;6.762;2022-11-15T16:52:14;2.00;;;1.43;;
9007;SDS011;62813;51.424;6.762;2022-11-15T16:54:46;2.37;;;1.30;;
9007;SDS011;62813;51.424;6.762;2022-11-15T16:57:13;2.40;;;1.40;;
9007;SDS011;62813;51.424;6.762;2022-11-15T16:59:39;3.90;;;1.50;;
9007;SDS011;62813;51.424;6.762;2022-11-15T17:02:10;4.27;;;1.80;;
9007;SDS011;62813;51.424;6.762;2022-11-15T17:04:37;3.47;;;1.60;;
9007;SDS011;62813;51.424;6.762;2022-11-15T17:07:04;2.13;;;1.30;;
9007;SDS011;62813;51.424;6.762;2022-11-15T17:09:32;2.50;;;1.43;;
9007;SDS011;62813;51.424;6.762;2022-11-15T17:12:01;4.53;;;1.80;;
9007;SDS011;62813;51.424;6.762;2022-11-15T17:14:27;1.93;;;1.63;;
9007;SDS011;62813;51.424;6.762;2022-11-15T17:16:54;4.40;;;1.93;;